Time;durP1;ratioP1;P1;durP2;ratioP2;P2;SDS_P1;SDS_P2;PMS_P1;PMS_P2;Temp;Humidity;BMP_temperature;BMP_pressure;BME280_temperature;BME280_humidity;BME280_pressure;Samples;Min_cycle;Max_cycle;Signal;HPM_P1;HPM_P2
2023/05/05 00:01:49;;;;;;;10.65;7.45;;;18.10;68.40;;;;;;5072730;28;20032;-75
2023/05/05 00:04:16;;;;;;;10.45;7.07;;;18.10;68.30;;;;;;5073551;28;20469;-75
2023/05/05 00:06:42;;;;;;;12.45;7.10;;;18.20;68.10;;;;;;5073653;28;20024;-75
2023/05/05 00:09:08;;;;;;;11.88;7.35;;;18.20;67.90;;;;;;5073140;28;20021;-75
2023/05/05 00:11:33;;;;;;;13.57;6.72;;;18.30;68.00;;;;;;5073456;28;20036;-75
2023/05/05 00:13:59;;;;;;;10.05;6.88;;;18.40;67.80;;;;;;5072616;28;20033;-75
2023/05/05 00:16:24;;;;;;;9.10;6.60;;;18.40;67.50;;;;;;5072403;28;20036;-75
2023/05/05 00:18:50;;;;;;;11.32;7.57;;;18.40;67.30;;;;;;5072394;28;20039;-75
2023/05/05 00:21:16;;;;;;;10.95;7.03;;;18.40;67.80;;;;;;5055681;28;20051;-75
2023/05/05 00:23:41;;;;;;;11.68;7.45;;;18.50;66.90;;;;;;5073406;28;20025;-75
2023/05/05 00:26:07;;;;;;;12.18;7.28;;;18.50;66.80;;;;;;5072502;28;20025;-75
2023/05/05 00:28:33;;;;;;;13.30;7.20;;;18.50;66.90;;;;;;5073215;28;20029;-75
2023/05/05 00:30:58;;;;;;;10.98;7.38;;;18.60;66.90;;;;;;5072145;28;20029;-75
2023/05/05 00:33:24;;;;;;;12.38;7.82;;;18.60;66.90;;;;;;5039073;28;20032;-75
2023/05/05 00:35:50;;;;;;;12.40;7.82;;;18.60;66.90;;;;;;5072260;28;20021;-75
2023/05/05 00:38:16;;;;;;;11.75;7.43;;;18.70;66.90;;;;;;5072051;28;20029;-74
2023/05/05 00:40:42;;;;;;;11.98;8.27;;;18.60;66.90;;;;;;5072805;28;20044;-75
2023/05/05 00:43:07;;;;;;;11.55;7.50;;;18.70;67.00;;;;;;5073081;28;20083;-75
2023/05/05 00:45:36;;;;;;;13.75;8.25;;;18.70;66.90;;;;;;5073042;28;20032;-75
2023/05/05 00:48:02;;;;;;;11.23;7.68;;;18.70;66.90;;;;;;5071985;28;20017;-75
2023/05/05 00:50:29;;;;;;;13.13;8.40;;;18.70;67.00;;;;;;5072998;28;20025;-75
2023/05/05 00:52:59;;;;;;;12.38;9.00;;;18.70;67.40;;;;;;5072955;28;20021;-75
2023/05/05 00:55:25;;;;;;;13.88;8.77;;;18.70;67.80;;;;;;5073043;28;20460;-75
2023/05/05 00:57:50;;;;;;;13.25;8.48;;;18.70;68.20;;;;;;5071886;28;20025;-75
2023/05/05 01:00:16;;;;;;;17.02;9.35;;;18.70;68.60;;;;;;5072809;28;20036;-75
2023/05/05 01:02:43;;;;;;;13.15;8.68;;;18.70;70.10;;;;;;5072871;28;20037;-74
2023/05/05 01:05:09;;;;;;;14.07;9.25;;;18.60;70.70;;;;;;5071846;28;20053;-74
2023/05/05 01:07:57;;;;;;;12.80;8.43;;;18.60;71.20;;;;;;5072806;28;20047;-74
2023/05/05 01:10:44;;;;;;;15.02;8.95;;;18.60;72.60;;;;;;5071872;28;20028;-74
2023/05/05 01:13:36;;;;;;;15.05;9.40;;;18.60;73.90;;;;;;5072780;28;20035;-75
2023/05/05 01:16:18;;;;;;;16.63;9.52;;;18.60;73.60;;;;;;5072831;28;20024;-74
2023/05/05 01:18:52;;;;;;;14.85;9.75;;;18.50;73.70;;;;;;5072796;28;20084;-74
2023/05/05 01:21:26;;;;;;;15.02;9.80;;;18.50;74.20;;;;;;5073144;28;20025;-74
2023/05/05 01:24:16;;;;;;;14.75;9.70;;;18.50;74.90;;;;;;5076785;28;20013;-74
2023/05/05 01:27:03;;;;;;;16.48;10.10;;;18.50;75.10;;;;;;5076692;28;20029;-75
2023/05/05 01:30:03;;;;;;;18.40;10.43;;;18.50;74.70;;;;;;5076542;28;20163;-74
2023/05/05 01:32:32;;;;;;;15.02;9.85;;;18.50;75.00;;;;;;5076485;28;20047;-74
2023/05/05 01:35:13;;;;;;;19.42;10.10;;;18.50;75.10;;;;;;5075309;28;20028;-75
2023/05/05 01:37:48;;;;;;;13.45;9.52;;;18.50;75.10;;;;;;5076428;28;20024;-74
2023/05/05 01:40:18;;;;;;;14.02;8.98;;;18.50;75.50;;;;;;5076057;28;20044;-75
2023/05/05 01:42:46;;;;;;;14.50;9.68;;;18.50;75.40;;;;;;5076314;28;20025;-74
2023/05/05 01:45:14;;;;;;;17.50;9.52;;;18.50;75.50;;;;;;5076219;28;20108;-74
2023/05/05 01:47:42;;;;;;;13.57;8.80;;;18.50;75.50;;;;;;5076317;28;20021;-74
2023/05/05 01:50:11;;;;;;;16.10;9.27;;;18.50;75.50;;;;;;5076106;28;20044;-75
2023/05/05 01:52:38;;;;;;;16.77;9.00;;;18.40;75.60;;;;;;5076126;28;20040;-74
2023/05/05 01:55:06;;;;;;;14.90;9.48;;;18.40;75.70;;;;;;5074993;28;20040;-74
2023/05/05 01:57:32;;;;;;;15.43;8.70;;;18.40;75.50;;;;;;5075979;28;20025;-74
2023/05/05 02:00:00;;;;;;;12.48;9.10;;;18.40;75.50;;;;;;5076008;28;20025;-75
2023/05/05 02:02:27;;;;;;;14.13;8.68;;;18.40;75.80;;;;;;5075861;28;20077;-75
2023/05/05 02:04:55;;;;;;;15.90;9.57;;;18.30;75.60;;;;;;5075863;28;20048;-75
2023/05/05 02:07:22;;;;;;;17.63;10.05;;;18.30;76.00;;;;;;5074824;28;20017;-74
2023/05/05 02:09:48;;;;;;;13.38;8.45;;;18.30;75.90;;;;;;5074799;28;20502;-75
2023/05/05 02:12:16;;;;;;;15.35;9.35;;;18.30;75.80;;;;;;5074660;28;20029;-74
2023/05/05 02:14:45;;;;;;;14.73;9.75;;;18.30;75.70;;;;;;5075654;28;20071;-75
2023/05/05 02:17:12;;;;;;;12.68;8.38;;;18.30;75.60;;;;;;5075611;28;20063;-75
2023/05/05 02:19:40;;;;;;;12.63;8.23;;;18.30;75.60;;;;;;5075465;28;20107;-74
2023/05/05 02:22:06;;;;;;;14.73;9.00;;;18.30;75.50;;;;;;5074610;28;20013;-75
2023/05/05 02:24:32;;;;;;;13.90;8.55;;;18.30;75.40;;;;;;5075462;28;20028;-75
2023/05/05 02:27:00;;;;;;;13.57;8.02;;;18.30;75.20;;;;;;5074559;28;20100;-75
2023/05/05 02:29:43;;;;;;;13.25;8.73;;;18.20;75.30;;;;;;5075397;28;20025;-75
2023/05/05 02:32:15;;;;;;;13.73;8.50;;;18.20;75.40;;;;;;5075152;28;20045;-75
2023/05/05 02:34:44;;;;;;;12.13;8.50;;;18.10;75.60;;;;;;5074237;28;20021;-74
2023/05/05 02:37:14;;;;;;;15.68;9.07;;;18.10;75.70;;;;;;5074209;28;20033;-74
2023/05/05 02:39:44;;;;;;;11.25;8.07;;;18.10;75.80;;;;;;5075146;28;20029;-75
2023/05/05 02:42:15;;;;;;;13.27;8.35;;;18.10;75.60;;;;;;5074987;28;20037;-75
2023/05/05 02:44:43;;;;;;;15.15;9.05;;;18.00;75.70;;;;;;5075266;28;20048;-75
2023/05/05 02:47:08;;;;;;;12.75;8.23;;;18.00;75.90;;;;;;5074041;28;20092;-75
2023/05/05 02:49:34;;;;;;;12.90;8.02;;;17.90;75.80;;;;;;5073968;28;20025;-75
2023/05/05 02:52:00;;;;;;;14.73;8.52;;;17.90;75.90;;;;;;5074925;28;20028;-74
2023/05/05 02:54:26;;;;;;;13.50;8.45;;;17.90;75.70;;;;;;5075039;28;20055;-75
2023/05/05 02:56:53;;;;;;;11.13;7.78;;;17.90;75.80;;;;;;5073977;28;20025;-75
2023/05/05 02:59:38;;;;;;;11.32;8.40;;;17.90;75.90;;;;;;5074730;28;20103;-75
2023/05/05 03:02:27;;;;;;;13.73;8.35;;;17.90;75.80;;;;;;5073793;28;20033;-75
2023/05/05 03:05:03;;;;;;;13.27;8.18;;;17.80;76.10;;;;;;5074696;28;20021;-74
2023/05/05 03:07:39;;;;;;;14.93;8.77;;;17.60;76.20;;;;;;5074688;28;20059;-75
2023/05/05 03:10:16;;;;;;;15.63;8.98;;;17.40;76.20;;;;;;5073516;28;20036;-75
2023/05/05 03:12:53;;;;;;;14.93;9.05;;;17.30;76.70;;;;;;5074620;28;20077;-75
2023/05/05 03:15:23;;;;;;;13.80;8.73;;;17.20;77.20;;;;;;5074565;28;20089;-74
2023/05/05 03:17:51;;;;;;;13.30;8.65;;;17.10;78.00;;;;;;5074538;28;20025;-75
2023/05/05 03:20:18;;;;;;;11.20;7.90;;;17.10;78.20;;;;;;5074319;28;20025;-75
2023/05/05 03:22:44;;;;;;;12.98;8.32;;;17.00;78.60;;;;;;5073322;28;20033;-74
2023/05/05 03:25:09;;;;;;;13.45;7.80;;;17.00;78.70;;;;;;5074288;28;20028;-75
2023/05/05 03:27:35;;;;;;;15.20;8.05;;;16.90;78.90;;;;;;5073376;28;20025;-74
2023/05/05 03:30:00;;;;;;;13.50;8.30;;;16.80;79.20;;;;;;5074278;28;20040;-75
2023/05/05 03:32:27;;;;;;;15.30;8.27;;;16.70;79.10;;;;;;5073151;28;20044;-74
2023/05/05 03:34:53;;;;;;;11.82;7.43;;;16.70;79.30;;;;;;5074027;28;20037;-74
2023/05/05 03:37:18;;;;;;;16.70;8.48;;;16.60;79.40;;;;;;5074063;28;20043;-74
2023/05/05 03:39:44;;;;;;;12.32;8.02;;;16.60;79.60;;;;;;5073022;28;20044;-74
2023/05/05 03:42:10;;;;;;;12.07;8.02;;;16.60;79.70;;;;;;5072924;28;20053;-74
2023/05/05 03:44:35;;;;;;;11.95;7.95;;;16.60;79.80;;;;;;5073254;28;20029;-74
2023/05/05 03:47:01;;;;;;;13.15;7.78;;;16.60;79.80;;;;;;5073872;28;20024;-75
2023/05/05 03:49:26;;;;;;;9.30;6.82;;;16.50;79.80;;;;;;5072924;28;20033;-74
2023/05/05 03:51:52;;;;;;;13.35;7.20;;;16.50;80.10;;;;;;5073832;28;20037;-75
2023/05/05 03:54:18;;;;;;;13.02;7.32;;;16.40;80.20;;;;;;5073746;28;20033;-74
2023/05/05 03:56:43;;;;;;;10.52;7.03;;;16.40;80.40;;;;;;5073729;28;20123;-74
2023/05/05 03:59:09;;;;;;;12.27;7.40;;;16.30;80.50;;;;;;5073691;28;20086;-75
2023/05/05 04:01:34;;;;;;;12.50;7.25;;;16.30;80.70;;;;;;5073620;28;20057;-74
2023/05/05 04:04:00;;;;;;;10.18;6.72;;;16.30;80.80;;;;;;5073712;28;20031;-74
2023/05/05 04:06:26;;;;;;;10.55;6.03;;;16.20;81.00;;;;;;5073574;28;20024;-75
2023/05/05 04:08:52;;;;;;;8.80;5.93;;;16.20;80.70;;;;;;5072663;28;20028;-74
2023/05/05 04:11:18;;;;;;;7.70;5.50;;;16.20;80.60;;;;;;5072558;28;20029;-74
2023/05/05 04:13:43;;;;;;;8.68;5.43;;;16.20;80.60;;;;;;5073579;28;20088;-74
2023/05/05 04:16:09;;;;;;;9.20;5.07;;;16.20;80.60;;;;;;5073380;28;20036;-74
2023/05/05 04:18:36;;;;;;;8.13;5.32;;;16.10;80.60;;;;;;5073420;28;20021;-74
2023/05/05 04:21:02;;;;;;;8.15;5.38;;;16.10;80.50;;;;;;5073276;28;20025;-74
2023/05/05 04:23:27;;;;;;;8.43;5.35;;;16.10;80.50;;;;;;5072339;28;20036;-74
2023/05/05 04:25:53;;;;;;;8.85;5.15;;;16.10;80.40;;;;;;5072304;28;20036;-74
2023/05/05 04:28:19;;;;;;;8.85;5.38;;;16.10;80.30;;;;;;5073211;28;20022;-74
2023/05/05 04:30:45;;;;;;;8.60;5.45;;;16.10;80.30;;;;;;5072208;28;20112;-74
2023/05/05 04:33:11;;;;;;;7.50;4.85;;;16.10;80.20;;;;;;5073199;28;20032;-74
2023/05/05 04:35:36;;;;;;;9.38;5.13;;;16.10;80.30;;;;;;5072093;28;20028;-74
2023/05/05 04:38:02;;;;;;;7.50;4.90;;;16.10;80.40;;;;;;5073066;28;20049;-74
2023/05/05 04:40:28;;;;;;;8.02;4.88;;;16.00;80.40;;;;;;5072859;28;20057;-75
2023/05/05 04:42:53;;;;;;;8.07;5.55;;;16.00;80.50;;;;;;5073125;28;20055;-74
2023/05/05 04:45:19;;;;;;;8.70;5.93;;;16.00;80.70;;;;;;5072046;28;20025;-74
2023/05/05 04:47:45;;;;;;;8.55;5.28;;;16.00;81.00;;;;;;5073026;28;20032;-74
2023/05/05 04:50:11;;;;;;;8.75;5.82;;;16.00;81.20;;;;;;5072985;28;20096;-74
2023/05/05 04:52:36;;;;;;;10.65;6.13;;;16.00;81.30;;;;;;5072106;28;20034;-74
2023/05/05 04:55:02;;;;;;;10.48;5.80;;;16.00;81.30;;;;;;5072949;28;20040;-74
2023/05/05 04:57:29;;;;;;;9.77;6.00;;;16.10;81.50;;;;;;5077097;28;20025;-74
2023/05/05 04:59:54;;;;;;;10.85;6.47;;;16.10;81.40;;;;;;5077123;28;20036;-74
2023/05/05 05:02:20;;;;;;;9.82;6.38;;;16.10;81.50;;;;;;5077020;28;20025;-74
2023/05/05 05:04:46;;;;;;;11.27;6.65;;;16.10;81.40;;;;;;5076034;28;20029;-74
2023/05/05 05:07:13;;;;;;;12.13;7.20;;;16.10;81.50;;;;;;5077045;28;20092;-74
2023/05/05 05:09:39;;;;;;;11.27;7.30;;;16.10;81.70;;;;;;5076891;28;20080;-74
2023/05/05 05:12:06;;;;;;;11.32;7.57;;;16.10;81.70;;;;;;5076807;28;20029;-75
2023/05/05 05:14:36;;;;;;;10.55;7.10;;;16.10;81.60;;;;;;5076713;28;20032;-74
2023/05/05 05:17:02;;;;;;;12.68;8.30;;;16.10;81.70;;;;;;5076882;28;20093;-75
2023/05/05 05:19:28;;;;;;;11.73;7.85;;;16.10;82.20;;;;;;5076626;28;20037;-75
2023/05/05 05:21:53;;;;;;;14.38;8.93;;;16.10;82.20;;;;;;5075635;28;20035;-76
2023/05/05 05:24:19;;;;;;;15.15;8.80;;;16.10;82.10;;;;;;5076600;28;20044;-75
2023/05/05 05:26:44;;;;;;;14.63;9.20;;;16.20;82.20;;;;;;5076583;28;20031;-75
2023/05/05 05:29:10;;;;;;;14.00;8.55;;;16.20;82.30;;;;;;5075674;28;20089;-74
2023/05/05 05:31:36;;;;;;;14.68;8.63;;;16.20;82.40;;;;;;5075518;28;20555;-74
2023/05/05 05:34:01;;;;;;;16.83;9.35;;;16.20;82.40;;;;;;5076374;28;20059;-74
2023/05/05 05:36:27;;;;;;;18.10;9.50;;;16.20;82.70;;;;;;5076349;28;20033;-74
2023/05/05 05:38:52;;;;;;;14.30;9.27;;;16.20;82.70;;;;;;5075238;28;20044;-74
2023/05/05 05:41:18;;;;;;;14.80;9.13;;;16.30;82.60;;;;;;5076137;28;20055;-74
2023/05/05 05:43:44;;;;;;;17.00;10.43;;;16.30;83.50;;;;;;5075315;28;20104;-74
2023/05/05 05:46:10;;;;;;;15.75;9.95;;;16.30;82.50;;;;;;5076191;28;20530;-76
2023/05/05 05:48:35;;;;;;;16.58;10.10;;;16.30;82.60;;;;;;5076138;28;20025;-74
2023/05/05 05:51:01;;;;;;;15.98;9.82;;;16.30;82.90;;;;;;5076268;28;20036;-75
2023/05/05 05:53:26;;;;;;;15.48;10.10;;;16.30;82.90;;;;;;5076005;28;20037;-75
2023/05/05 05:55:52;;;;;;;17.77;10.55;;;16.30;83.00;;;;;;5076043;28;20028;-75
2023/05/05 05:58:18;;;;;;;18.25;10.32;;;16.30;83.90;;;;;;5074925;28;20033;-75
2023/05/05 06:00:43;;;;;;;16.63;10.35;;;16.30;83.90;;;;;;5075864;28;20092;-75
2023/05/05 06:03:09;;;;;;;16.20;10.43;;;16.30;84.30;;;;;;5075916;28;20043;-75
2023/05/05 06:05:35;;;;;;;18.23;11.23;;;16.30;84.60;;;;;;5075846;28;20033;-75
2023/05/05 06:08:00;;;;;;;17.42;10.88;;;16.30;84.70;;;;;;5074211;28;20078;-75
2023/05/05 06:10:26;;;;;;;18.15;10.82;;;16.40;84.60;;;;;;5074735;28;20476;-75
2023/05/05 06:12:52;;;;;;;19.00;10.80;;;16.40;84.00;;;;;;5075725;28;20029;-75
2023/05/05 06:15:17;;;;;;;15.90;10.25;;;16.50;84.20;;;;;;5075639;28;20041;-75
2023/05/05 06:17:43;;;;;;;17.48;11.20;;;16.50;84.40;;;;;;5074691;28;20041;-75
2023/05/05 06:20:09;;;;;;;18.95;11.05;;;16.50;84.90;;;;;;5075633;28;20033;-75
2023/05/05 06:22:35;;;;;;;17.67;11.65;;;16.60;84.20;;;;;;5074580;28;20083;-75
2023/05/05 06:25:00;;;;;;;16.48;10.75;;;16.60;84.70;;;;;;5074625;28;20025;-75
2023/05/05 06:27:26;;;;;;;18.67;12.38;;;16.70;84.70;;;;;;5075381;28;20040;-75
2023/05/05 06:29:52;;;;;;;18.02;10.98;;;16.70;85.20;;;;;;5074345;28;20127;-74
2023/05/05 06:32:19;;;;;;;20.42;12.15;;;16.80;84.90;;;;;;5075314;28;20029;-75
2023/05/05 06:34:46;;;;;;;18.10;10.70;;;16.80;85.60;;;;;;5075217;28;20039;-75
2023/05/05 06:37:11;;;;;;;20.35;10.60;;;16.90;85.40;;;;;;5074224;28;20088;-75
2023/05/05 06:39:37;;;;;;;18.30;11.48;;;16.90;85.50;;;;;;5075108;28;20029;-75
2023/05/05 06:42:03;;;;;;;20.33;12.35;;;17.00;85.70;;;;;;5074057;28;20045;-75
2023/05/05 06:44:29;;;;;;;18.30;10.55;;;17.00;86.00;;;;;;5075113;28;20036;-74
2023/05/05 06:46:55;;;;;;;22.80;11.88;;;16.90;86.20;;;;;;5074182;28;20023;-75
2023/05/05 06:49:21;;;;;;;20.92;11.45;;;16.90;86.70;;;;;;5075048;28;20017;-74
2023/05/05 06:51:47;;;;;;;19.00;12.57;;;17.00;86.30;;;;;;5075137;28;20036;-75
2023/05/05 06:54:12;;;;;;;21.88;11.82;;;17.10;86.60;;;;;;5074963;28;20041;-74
2023/05/05 06:56:38;;;;;;;20.35;12.35;;;17.10;85.80;;;;;;5074921;28;20084;-74
2023/05/05 06:59:04;;;;;;;20.73;11.48;;;17.20;86.20;;;;;;5074778;28;20049;-74
2023/05/05 07:01:29;;;;;;;22.92;11.90;;;17.20;86.40;;;;;;5073890;28;20495;-74
2023/05/05 07:03:55;;;;;;;19.58;11.68;;;17.30;86.40;;;;;;5074742;28;20021;-75
2023/05/05 07:06:21;;;;;;;21.35;12.35;;;17.30;85.60;;;;;;5057088;28;20112;-74
2023/05/05 07:08:47;;;;;;;18.95;11.52;;;17.40;85.30;;;;;;5074695;28;20021;-74
2023/05/05 07:11:12;;;;;;;19.30;10.73;;;17.50;85.00;;;;;;5073855;28;20145;-74
2023/05/05 07:13:38;;;;;;;21.67;11.52;;;17.60;84.90;;;;;;5074571;28;20029;-74
2023/05/05 07:16:04;;;;;;;21.02;11.18;;;17.70;85.00;;;;;;5073678;28;20021;-75
2023/05/05 07:18:30;;;;;;;17.65;10.40;;;17.70;84.50;;;;;;5074165;28;20025;-75
2023/05/05 07:20:55;;;;;;;18.35;10.32;;;17.80;84.50;;;;;;5072798;28;20487;-74
2023/05/05 07:23:21;;;;;;;17.88;10.52;;;17.80;83.90;;;;;;5074505;28;20025;-75
2023/05/05 07:25:47;;;;;;;18.85;10.13;;;17.80;83.90;;;;;;5073526;28;20021;-75
2023/05/05 07:28:12;;;;;;;18.50;10.70;;;17.90;84.00;;;;;;5074436;28;20025;-75
2023/05/05 07:30:38;;;;;;;19.40;10.85;;;17.80;84.90;;;;;;5073352;28;20036;-75
2023/05/05 07:33:04;;;;;;;16.33;10.98;;;18.00;84.60;;;;;;5074223;28;20085;-75
2023/05/05 07:35:29;;;;;;;17.55;10.00;;;18.10;83.90;;;;;;5074015;28;20079;-74
2023/05/05 07:37:55;;;;;;;14.15;9.48;;;18.10;83.70;;;;;;5073219;28;20067;-74
2023/05/05 07:40:21;;;;;;;15.35;8.70;;;18.20;82.60;;;;;;5073826;28;20079;-75
2023/05/05 07:42:46;;;;;;;16.23;9.98;;;18.20;82.60;;;;;;5073016;28;20028;-75
2023/05/05 07:45:12;;;;;;;18.23;9.57;;;18.30;82.40;;;;;;5073083;28;20044;-75
2023/05/05 07:47:37;;;;;;;15.63;7.95;;;18.40;82.20;;;;;;5073905;28;20095;-75
2023/05/05 07:50:04;;;;;;;14.68;6.93;;;18.40;82.10;;;;;;5073872;28;20033;-75
2023/05/05 07:52:29;;;;;;;14.98;7.57;;;18.50;81.10;;;;;;5073869;28;20057;-75
2023/05/05 07:54:55;;;;;;;10.73;6.72;;;18.40;80.70;;;;;;5073742;28;20040;-75
2023/05/05 07:57:20;;;;;;;10.85;6.00;;;18.50;80.30;;;;;;5072695;28;20037;-75
2023/05/05 07:59:47;;;;;;;10.32;5.68;;;18.70;79.80;;;;;;5073702;28;20036;-75
2023/05/05 08:02:13;;;;;;;10.38;5.43;;;18.80;79.30;;;;;;5056260;28;20048;-75
2023/05/05 08:04:39;;;;;;;7.68;4.55;;;18.90;78.80;;;;;;5073634;28;20029;-74
2023/05/05 08:07:06;;;;;;;8.40;4.60;;;19.00;76.60;;;;;;5073580;28;20028;-75
2023/05/05 08:09:33;;;;;;;10.38;5.60;;;18.90;75.60;;;;;;5073406;28;20024;-74
2023/05/05 08:12:00;;;;;;;11.13;6.10;;;18.90;77.10;;;;;;5073475;28;20033;-75
2023/05/05 08:14:25;;;;;;;9.57;6.05;;;19.10;77.90;;;;;;5073476;28;20029;-74
2023/05/05 08:16:51;;;;;;;11.43;6.28;;;19.10;76.90;;;;;;5073410;28;20504;-75
2023/05/05 08:19:18;;;;;;;8.25;4.82;;;19.20;76.70;;;;;;5073292;28;20036;-75
2023/05/05 08:21:43;;;;;;;6.18;4.07;;;19.30;76.80;;;;;;5073383;28;20076;-75
2023/05/05 08:24:09;;;;;;;7.82;4.78;;;19.40;75.00;;;;;;5073320;28;20032;-75
2023/05/05 08:26:35;;;;;;;7.10;4.40;;;19.50;75.20;;;;;;5073324;28;20503;-75
2023/05/05 08:29:00;;;;;;;7.10;4.63;;;19.50;74.60;;;;;;5073261;28;20032;-74
2023/05/05 08:31:32;;;;;;;8.95;4.93;;;19.70;74.20;;;;;;5071914;28;20021;-76
2023/05/05 08:33:58;;;;;;;6.60;3.53;;;19.80;74.30;;;;;;5073185;28;20025;-75
2023/05/05 08:36:24;;;;;;;8.77;4.95;;;19.80;73.20;;;;;;5073164;28;20039;-75
2023/05/05 08:38:50;;;;;;;6.32;4.35;;;19.90;72.70;;;;;;5073086;28;20047;-74
2023/05/05 08:41:18;;;;;;;6.38;3.83;;;19.90;72.30;;;;;;5072861;28;20053;-74
2023/05/05 08:43:46;;;;;;;6.90;4.50;;;20.00;72.40;;;;;;5073067;28;20036;-74
2023/05/05 08:46:11;;;;;;;6.50;4.07;;;20.10;71.80;;;;;;5073063;28;20025;-74
2023/05/05 08:48:40;;;;;;;5.25;3.30;;;20.20;71.50;;;;;;5073026;28;20032;-74
2023/05/05 08:51:08;;;;;;;5.47;3.25;;;20.30;70.60;;;;;;5073026;28;20025;-74
2023/05/05 08:53:53;;;;;;;6.10;2.83;;;20.30;70.90;;;;;;5072070;28;20036;-74
2023/05/05 08:56:23;;;;;;;7.75;3.80;;;20.40;70.70;;;;;;5072065;28;20032;-74
2023/05/05 08:58:50;;;;;;;6.18;3.53;;;20.40;68.90;;;;;;5073041;28;20478;-74
2023/05/05 09:01:17;;;;;;;6.47;3.70;;;20.40;69.10;;;;;;5072887;28;20536;-74
2023/05/05 09:03:44;;;;;;;6.10;3.40;;;20.30;68.60;;;;;;5072871;28;20021;-74
2023/05/05 09:06:10;;;;;;;2.75;1.98;;;20.20;69.00;;;;;;5072842;28;20025;-74
2023/05/05 09:08:37;;;;;;;5.13;2.30;;;20.30;69.10;;;;;;5072867;28;20074;-74
2023/05/05 09:11:03;;;;;;;5.82;3.17;;;20.40;69.20;;;;;;5072831;28;20048;-74
2023/05/05 09:13:30;;;;;;;5.88;3.45;;;20.50;70.00;;;;;;5072813;28;20029;-74
2023/05/05 09:15:56;;;;;;;6.65;3.22;;;20.50;68.90;;;;;;5072728;28;20031;-74
2023/05/05 09:18:21;;;;;;;5.07;3.28;;;20.50;68.20;;;;;;5071785;28;20072;-74
2023/05/05 09:20:47;;;;;;;4.13;2.83;;;20.50;67.70;;;;;;5071617;28;20032;-74
2023/05/05 09:23:18;;;;;;;8.20;3.45;;;20.40;68.40;;;;;;5072715;28;20029;-74
2023/05/05 09:25:46;;;;;;;7.47;3.30;;;20.20;69.60;;;;;;5071733;28;20025;-75
2023/05/05 09:28:17;;;;;;;5.13;2.75;;;20.10;69.90;;;;;;5072607;28;20029;-74
2023/05/05 09:30:44;;;;;;;5.60;2.40;;;20.10;70.20;;;;;;5071833;28;20036;-74
2023/05/05 09:33:10;;;;;;;4.03;2.58;;;20.10;69.40;;;;;;5072618;28;20096;-74
2023/05/05 09:35:51;;;;;;;7.30;2.97;;;20.20;68.70;;;;;;5071573;28;20025;-74
2023/05/05 09:38:18;;;;;;;5.97;2.80;;;20.20;69.10;;;;;;5072561;28;20085;-74
2023/05/05 09:40:51;;;;;;;6.93;3.17;;;20.20;69.30;;;;;;5072291;28;20109;-74
2023/05/05 09:43:18;;;;;;;7.35;3.72;;;20.00;68.70;;;;;;5074403;28;20021;-74
2023/05/05 09:45:44;;;;;;;5.45;3.13;;;20.00;68.70;;;;;;5076231;28;20085;-74
2023/05/05 09:48:25;;;;;;;9.25;3.50;;;20.00;69.30;;;;;;5076236;28;20021;-74
2023/05/05 09:50:51;;;;;;;5.18;3.20;;;20.10;69.40;;;;;;5075136;28;20047;-74
2023/05/05 09:53:17;;;;;;;5.43;2.75;;;20.20;69.30;;;;;;5076132;28;20025;-74
2023/05/05 09:55:56;;;;;;;5.07;2.80;;;20.20;68.70;;;;;;5075173;28;20025;-74
2023/05/05 09:58:29;;;;;;;4.97;2.78;;;20.20;68.00;;;;;;5075988;28;20059;-73
2023/05/05 10:00:57;;;;;;;4.68;2.80;;;20.20;70.50;;;;;;5075927;28;20029;-74
2023/05/05 10:03:24;;;;;;;5.53;2.72;;;20.00;69.40;;;;;;5075944;28;20017;-76
2023/05/05 10:05:50;;;;;;;6.30;2.53;;;19.90;70.00;;;;;;5075880;28;20047;-73
2023/05/05 10:08:27;;;;;;;5.53;2.63;;;19.90;70.00;;;;;;5074873;28;20028;-73
2023/05/05 10:11:03;;;;;;;5.65;2.40;;;19.90;69.20;;;;;;5074749;28;20036;-72
2023/05/05 10:13:31;;;;;;;3.92;2.08;;;19.80;69.50;;;;;;5075759;28;20029;-73
2023/05/05 10:15:57;;;;;;;5.65;2.50;;;19.70;69.80;;;;;;5075660;28;20084;-73
2023/05/05 10:18:27;;;;;;;4.72;2.55;;;19.70;71.10;;;;;;5075654;28;20021;-73
2023/05/05 10:21:03;;;;;;;3.95;1.90;;;19.70;70.20;;;;;;5074613;28;20021;-72
2023/05/05 10:23:38;;;;;;;4.65;2.33;;;19.80;70.20;;;;;;5075525;28;20029;-73
2023/05/05 10:26:11;;;;;;;6.40;3.22;;;19.80;71.30;;;;;;5075667;28;20028;-74
2023/05/05 10:28:43;;;;;;;4.45;2.80;;;19.80;72.00;;;;;;5075472;28;20028;-74
2023/05/05 10:31:40;;;;;;;3.55;2.30;;;19.80;70.70;;;;;;5075584;28;20112;-74
2023/05/05 10:34:09;;;;;;;10.70;3.60;;;19.90;70.10;;;;;;5075259;28;20033;-74
2023/05/05 10:36:37;;;;;;;8.45;3.45;;;19.90;69.70;;;;;;5075297;28;20028;-74
2023/05/05 10:39:08;;;;;;;4.60;3.05;;;19.90;71.00;;;;;;5075195;28;20032;-74
2023/05/05 10:41:34;;;;;;;6.22;3.42;;;19.90;70.50;;;;;;5075026;28;20041;-74
2023/05/05 10:44:00;;;;;;;4.18;2.83;;;19.90;72.40;;;;;;5074227;28;20033;-74
2023/05/05 10:46:27;;;;;;;3.83;2.35;;;19.90;72.60;;;;;;5075088;28;20021;-74
2023/05/05 10:49:11;;;;;;;5.60;2.55;;;19.80;70.90;;;;;;5075092;28;20088;-74
2023/05/05 10:51:48;;;;;;;5.53;2.78;;;19.80;71.80;;;;;;5075070;28;20025;-74
2023/05/05 10:54:29;;;;;;;4.43;2.70;;;19.90;71.50;;;;;;5073754;28;20024;-74
2023/05/05 10:56:56;;;;;;;5.13;2.72;;;19.90;72.00;;;;;;5074057;28;20025;-74
2023/05/05 10:59:37;;;;;;;5.68;2.83;;;19.70;70.70;;;;;;5074838;28;20025;-75
2023/05/05 11:02:25;;;;;;;4.63;2.97;;;19.80;71.50;;;;;;5074794;28;20036;-75
2023/05/05 11:05:13;;;;;;;7.88;3.45;;;19.90;72.00;;;;;;5074805;28;20013;-75
2023/05/05 11:07:40;;;;;;;4.85;3.28;;;19.80;72.30;;;;;;5074890;28;20013;-74
2023/05/05 11:10:09;;;;;;;4.22;2.10;;;19.70;73.90;;;;;;5073775;28;20080;-75
2023/05/05 11:13:01;;;;;;;5.50;1.95;;;19.70;72.20;;;;;;5073745;28;20124;-75
2023/05/05 11:15:26;;;;;;;5.53;2.33;;;19.50;71.30;;;;;;5074728;28;20027;-74
2023/05/05 11:17:56;;;;;;;3.97;2.40;;;19.40;72.50;;;;;;5074529;28;20029;-75
2023/05/05 11:20:39;;;;;;;4.38;2.30;;;19.40;73.80;;;;;;5074387;28;20056;-74
2023/05/05 11:23:05;;;;;;;4.57;2.20;;;19.40;74.50;;;;;;5074520;28;20021;-74
2023/05/05 11:25:34;;;;;;;4.10;2.20;;;19.30;75.30;;;;;;5074417;28;20025;-74
2023/05/05 11:28:15;;;;;;;5.75;3.15;;;19.30;76.20;;;;;;5074371;28;20013;-74
2023/05/05 11:30:55;;;;;;;6.75;3.70;;;19.30;79.90;;;;;;5074310;28;20021;-74
2023/05/05 11:33:28;;;;;;;6.03;3.05;;;19.10;81.80;;;;;;5074153;28;20029;-74
2023/05/05 11:35:59;;;;;;;8.80;3.20;;;18.90;81.70;;;;;;5073230;28;20029;-74
2023/05/05 11:38:34;;;;;;;4.45;2.58;;;18.70;82.00;;;;;;5074156;28;20052;-74
2023/05/05 11:41:30;;;;;;;6.25;3.28;;;18.50;83.20;;;;;;5073893;28;20444;-74
2023/05/05 11:44:07;;;;;;;4.15;2.20;;;18.40;84.00;;;;;;5073216;28;20033;-74
2023/05/05 11:46:33;;;;;;;3.90;1.90;;;18.20;84.90;;;;;;5073014;28;20021;-74
2023/05/05 11:48:58;;;;;;;2.85;1.38;;;18.10;84.20;;;;;;5073937;28;20045;-74
2023/05/05 11:51:25;;;;;;;2.67;1.20;;;18.00;84.20;;;;;;5072911;28;20047;-74
2023/05/05 11:53:51;;;;;;;5.18;1.30;;;17.80;84.00;;;;;;5074038;28;20100;-74
2023/05/05 11:56:21;;;;;;;3.15;1.10;;;17.70;84.50;;;;;;5073862;28;20029;-74
2023/05/05 11:58:47;;;;;;;4.07;1.60;;;17.50;85.00;;;;;;5073825;28;20032;-74
2023/05/05 12:01:14;;;;;;;1.85;1.10;;;17.40;86.50;;;;;;5073698;28;20478;-74
2023/05/05 12:03:40;;;;;;;2.38;1.20;;;17.30;87.80;;;;;;5073674;28;20081;-74
2023/05/05 12:06:07;;;;;;;1.90;1.00;;;17.30;87.20;;;;;;5073048;28;20076;-74
2023/05/05 12:08:39;;;;;;;3.28;0.90;;;17.30;87.40;;;;;;5073639;28;20026;-74
2023/05/05 12:11:07;;;;;;;1.30;0.77;;;17.20;87.40;;;;;;5073676;28;20021;-74
2023/05/05 12:13:32;;;;;;;2.50;0.90;;;17.20;88.30;;;;;;5073551;28;20434;-74
2023/05/05 12:16:11;;;;;;;2.03;0.95;;;17.10;87.80;;;;;;5073499;28;20025;-74
2023/05/05 12:18:37;;;;;;;1.23;0.90;;;17.20;87.70;;;;;;5073581;28;20021;-74
2023/05/05 12:21:19;;;;;;;1.58;0.95;;;17.40;87.80;;;;;;5073346;28;20035;-74
2023/05/05 12:23:45;;;;;;;3.42;1.10;;;17.50;87.60;;;;;;5073424;28;20036;-74
2023/05/05 12:26:27;;;;;;;6.47;1.52;;;17.50;87.70;;;;;;5073350;28;20025;-74
2023/05/05 12:28:59;;;;;;;6.30;1.73;;;17.60;88.30;;;;;;5073294;28;20029;-74
2023/05/05 12:31:40;;;;;;;2.85;1.30;;;17.60;87.90;;;;;;5072516;28;20029;-74
2023/05/05 12:34:08;;;;;;;4.15;1.30;;;17.70;88.10;;;;;;5073198;28;20100;-74
2023/05/05 12:36:34;;;;;;;12.10;2.00;;;17.70;88.10;;;;;;5073291;28;20086;-74
2023/05/05 12:39:01;;;;;;;5.22;1.42;;;17.70;88.20;;;;;;5073190;28;20036;-74
2023/05/05 12:41:27;;;;;;;14.27;1.98;;;17.70;87.80;;;;;;5072952;28;20049;-74
2023/05/05 12:43:57;;;;;;;14.32;2.00;;;17.70;87.60;;;;;;5073128;28;20039;-74
2023/05/05 12:46:24;;;;;;;4.82;1.50;;;17.70;87.50;;;;;;5073087;28;20020;-74